Time;durP1;ratioP1;P1;durP2;ratioP2;P2;SDS_P1;SDS_P2;PMS_P1;PMS_P2;Temp;Humidity;BMP_temperature;BMP_pressure;BME280_temperature;BME280_humidity;BME280_pressure;Samples;Min_cycle;Max_cycle;Signal;HPM_P1;HPM_P2
2022/09/27 00:01:03;;;;;;;312.70;297.20;;;;;;;19.98;58.88;99603.96;117070;1189;24162;-60
2022/09/27 00:03:30;;;;;;;322.60;306.10;;;;;;;19.99;58.68;99595.32;117148;1186;22629;-60
2022/09/27 00:06:24;;;;;;;318.10;302.30;;;;;;;20.02;58.59;99595.48;117352;1185;21878;-59
2022/09/27 00:08:52;;;;;;;309.50;294.20;;;;;;;20.05;58.93;99600.80;117329;1189;21855;-59
2022/09/27 00:11:34;;;;;;;319.40;303.30;;;;;;;20.07;59.06;99601.27;117288;1185;24239;-59
2022/09/27 00:14:02;;;;;;;305.90;290.60;;;;;;;20.09;58.75;99602.39;117238;1186;23557;-60
2022/09/27 00:16:31;;;;;;;315.20;299.20;;;;;;;20.10;59.17;99588.74;117303;1184;22999;-59
2022/09/27 00:19:03;;;;;;;333.60;317.00;;;;;;;20.11;58.93;99589.40;117347;1185;21858;-66
2022/09/27 00:21:30;;;;;;;327.70;311.20;;;;;;;20.11;58.96;99589.02;117204;1186;23451;-60
2022/09/27 00:23:58;;;;;;;333.50;316.50;;;;;;;20.12;58.80;99588.97;117183;1185;22567;-66
2022/09/27 00:26:25;;;;;;;315.70;299.20;;;;;;;20.15;58.67;99583.09;117110;1187;22553;-60
2022/09/27 00:28:51;;;;;;;311.30;295.50;;;;;;;20.17;58.79;99576.75;117275;1186;24175;-66
2022/09/27 00:31:24;;;;;;;293.30;278.50;;;;;;;20.17;59.25;99573.15;117153;1186;23552;-59
2022/09/27 00:33:52;;;;;;;341.40;324.40;;;;;;;20.17;59.06;99573.38;117144;1185;21866;-67
2022/09/27 00:36:19;;;;;;;322.50;306.10;;;;;;;20.16;58.80;99572.69;117192;1186;21932;-66
2022/09/27 00:38:46;;;;;;;324.50;307.80;;;;;;;20.17;58.84;99570.31;117240;1185;24162;-67
2022/09/27 00:41:19;;;;;;;334.50;317.60;;;;;;;20.17;59.02;99564.42;117242;1184;24248;-66
2022/09/27 00:43:45;;;;;;;323.30;307.00;;;;;;;20.17;58.76;99564.29;117391;1185;21861;-59
2022/09/27 00:46:14;;;;;;;334.60;317.60;;;;;;;20.18;59.03;99565.79;117289;1185;23564;-59
2022/09/27 00:48:41;;;;;;;351.10;333.30;;;;;;;20.19;58.97;99565.39;117123;1186;21859;-60
2022/09/27 00:51:08;;;;;;;339.10;321.90;;;;;;;20.19;59.01;99560.00;117155;1186;24188;-59
2022/09/27 00:53:45;;;;;;;332.70;315.80;;;;;;;20.19;58.92;99558.41;117007;1187;23554;-59
2022/09/27 00:56:15;;;;;;;339.80;322.70;;;;;;;20.19;58.92;99562.16;117100;1190;21858;-66
2022/09/27 00:58:45;;;;;;;332.80;315.60;;;;;;;20.19;58.95;99562.34;117131;1182;22711;-67
2022/09/27 01:01:13;;;;;;;320.20;303.70;;;;;;;20.19;59.14;99555.77;117297;1185;21950;-60
2022/09/27 01:03:47;;;;;;;343.10;325.60;;;;;;;20.18;59.23;99558.48;117359;1186;23624;-67
2022/09/27 01:06:14;;;;;;;345.00;327.90;;;;;;;20.18;59.61;99559.55;117127;1187;22622;-66
2022/09/27 01:08:41;;;;;;;326.20;309.30;;;;;;;20.18;59.81;99554.39;116958;1188;23558;-59
2022/09/27 01:11:23;;;;;;;342.00;324.70;;;;;;;20.17;59.69;99546.47;117159;1186;22806;-62
2022/09/27 01:14:20;;;;;;;337.50;319.90;;;;;;;20.16;59.76;99546.52;116980;1186;23557;-61
2022/09/27 01:16:52;;;;;;;318.70;302.60;;;;;;;20.15;59.68;99536.75;116961;1187;23580;-66
2022/09/27 01:19:19;;;;;;;349.50;331.10;;;;;;;20.16;59.63;99532.26;116993;1187;23005;-61
2022/09/27 01:21:57;;;;;;;307.40;291.90;;;;;;;20.16;59.70;99524.27;117068;1186;23676;-61
2022/09/27 01:24:47;;;;;;;358.70;340.20;;;;;;;20.14;59.84;99525.26;117076;1187;22928;-61
2022/09/27 01:27:40;;;;;;;333.70;316.60;;;;;;;20.13;59.67;99528.24;117245;1188;23576;-66
2022/09/27 01:30:20;;;;;;;320.70;303.90;;;;;;;20.13;59.83;99528.59;117024;1186;23621;-67
2022/09/27 01:33:07;;;;;;;330.80;313.90;;;;;;;20.12;59.91;99523.64;116902;1185;21859;-61
2022/09/27 01:35:43;;;;;;;345.70;328.40;;;;;;;20.11;59.83;99514.59;117052;1187;23656;-61
2022/09/27 01:38:15;;;;;;;358.80;340.20;;;;;;;20.11;59.94;99509.13;117160;1186;23582;-68
2022/09/27 01:41:23;;;;;;;342.20;324.60;;;;;;;20.11;59.79;99506.77;117170;1186;23646;-68
2022/09/27 01:44:03;;;;;;;347.30;328.90;;;;;;;20.11;59.82;99513.70;116786;1189;23582;-67
2022/09/27 01:47:01;;;;;;;372.90;353.90;;;;;;;20.12;59.69;99516.15;116793;1189;22807;-67
2022/09/27 01:49:36;;;;;;;359.10;340.50;;;;;;;20.14;59.80;99509.27;116977;1187;23557;-68
2022/09/27 01:52:04;;;;;;;334.80;317.40;;;;;;;20.14;59.93;99502.83;117036;1187;23557;-68
2022/09/27 01:54:36;;;;;;;363.00;343.70;;;;;;;20.13;60.42;99503.30;117031;1186;21865;-61
2022/09/27 01:57:03;;;;;;;384.70;364.40;;;;;;;20.09;60.41;99501.01;117007;1186;22648;-67
2022/09/27 01:59:36;;;;;;;374.30;354.20;;;;;;;20.09;60.13;99502.84;117001;1189;23545;-68
2022/09/27 02:02:06;;;;;;;385.60;364.70;;;;;;;20.10;60.03;99508.48;117040;1187;23582;-62
2022/09/27 02:04:33;;;;;;;376.30;356.30;;;;;;;20.11;60.14;99501.31;117067;1188;21855;-61
2022/09/27 02:07:50;;;;;;;341.50;323.20;;;;;;;20.10;60.13;99497.42;117132;1188;22907;-61
2022/09/27 02:10:25;;;;;;;196.60;186.00;;;;;;;20.09;60.23;99506.36;117343;1185;23643;-62
2022/09/27 02:12:56;;;;;;;148.90;140.80;;;;;;;20.08;60.12;99501.48;117181;1186;23004;-62
2022/09/27 02:15:23;;;;;;;143.30;135.30;;;;;;;20.08;60.09;99493.27;117117;1189;22270;-62
2022/09/27 02:17:50;;;;;;;148.90;140.60;;;;;;;20.09;59.99;99485.88;116995;1187;23603;-68
2022/09/27 02:20:39;;;;;;;146.30;138.00;;;;;;;20.11;60.05;99486.34;117018;1187;23656;-67
2022/09/27 02:23:15;;;;;;;151.40;143.20;;;;;;;20.11;60.09;99485.44;117029;1187;22814;-61
2022/09/27 02:25:45;;;;;;;159.30;150.40;;;;;;;20.12;60.06;99485.90;117099;1187;21898;-69
2022/09/27 02:28:29;;;;;;;149.40;141.00;;;;;;;20.12;60.31;99483.91;116941;1186;21855;-69
2022/09/27 02:30:56;;;;;;;158.00;148.80;;;;;;;20.11;60.34;99475.07;117128;1186;24294;-66
2022/09/27 02:33:58;;;;;;;158.70;149.80;;;;;;;20.10;60.54;99469.45;117154;1188;23555;-61
2022/09/27 02:36:25;;;;;;;145.30;136.80;;;;;;;20.09;60.79;99465.05;117113;1186;23507;-68
2022/09/27 02:38:52;;;;;;;146.10;137.70;;;;;;;20.08;60.68;99458.74;116990;1187;23611;-61
2022/09/27 02:41:20;;;;;;;165.10;155.90;;;;;;;20.06;60.60;99453.84;117196;1186;23573;-61
2022/09/27 02:43:59;;;;;;;155.30;146.70;;;;;;;20.06;60.54;99451.92;117318;1186;23571;-67
2022/09/27 02:46:37;;;;;;;155.40;146.80;;;;;;;20.06;60.47;99448.30;117106;1186;22929;-68
2022/09/27 02:49:54;;;;;;;161.70;152.80;;;;;;;20.08;60.59;99446.46;117059;1187;23557;-68
2022/09/27 02:52:27;;;;;;;146.70;138.70;;;;;;;20.07;60.53;99435.63;116961;1187;23681;-61
2022/09/27 02:55:13;;;;;;;148.20;139.80;;;;;;;20.06;60.60;99424.64;117056;1189;23553;-67
2022/09/27 02:58:05;;;;;;;141.30;133.60;;;;;;;20.06;60.61;99417.73;117033;1186;23580;-61
2022/09/27 03:00:58;;;;;;;139.60;132.10;;;;;;;20.07;60.62;99409.13;117009;1187;23653;-61
2022/09/27 03:03:28;;;;;;;138.80;131.10;;;;;;;20.06;60.72;99398.82;117279;1188;23579;-68
2022/09/27 03:06:01;;;;;;;144.70;136.40;;;;;;;20.04;61.11;99397.15;117116;1185;23576;-69
2022/09/27 03:08:28;;;;;;;137.20;129.90;;;;;;;20.02;61.20;99397.66;116936;1187;22628;-68
2022/09/27 03:10:55;;;;;;;151.70;143.70;;;;;;;20.01;61.19;99391.36;117023;1189;22814;-61
2022/09/27 03:13:22;;;;;;;153.20;145.00;;;;;;;19.99;61.22;99382.39;117109;1186;22927;-61
2022/09/27 03:15:49;;;;;;;145.00;137.00;;;;;;;19.99;61.17;99378.48;117084;1187;23551;-61
2022/09/27 03:18:17;;;;;;;155.60;147.30;;;;;;;20.00;61.30;99379.15;117151;1186;22801;-61
2022/09/27 03:20:43;;;;;;;159.20;150.30;;;;;;;20.00;61.44;99382.52;117033;1186;23616;-69
2022/09/27 03:23:11;;;;;;;158.40;149.90;;;;;;;20.00;61.00;99384.45;117070;1186;24261;-62
2022/09/27 03:25:39;;;;;;;157.90;149.60;;;;;;;20.02;61.36;99386.29;117240;1185;23566;-62
2022/09/27 03:28:10;;;;;;;157.30;148.60;;;;;;;20.03;61.25;99388.00;117119;1185;23618;-69
2022/09/27 03:30:38;;;;;;;158.90;150.50;;;;;;;20.04;61.42;99384.39;117101;1188;22829;-62
2022/09/27 03:33:05;;;;;;;156.40;147.90;;;;;;;20.05;61.47;99381.96;117273;1186;21845;-69
2022/09/27 03:35:32;;;;;;;159.20;150.20;;;;;;;20.06;61.65;99384.77;117221;1185;22892;-70
2022/09/27 03:38:00;;;;;;;165.90;157.00;;;;;;;20.05;61.88;99384.47;117164;1186;24176;-66
2022/09/27 03:40:27;;;;;;;156.20;147.90;;;;;;;20.04;61.54;99386.83;117316;1186;23577;-61
2022/09/27 03:42:55;;;;;;;165.70;156.60;;;;;;;20.06;61.51;99390.48;117130;1188;21859;-62
2022/09/27 03:45:22;;;;;;;159.50;150.70;;;;;;;20.07;61.52;99390.41;117252;1185;24189;-62
2022/09/27 03:47:49;;;;;;;173.90;164.20;;;;;;;20.10;61.52;99386.13;117324;1185;23553;-70
2022/09/27 03:50:16;;;;;;;172.80;163.40;;;;;;;20.12;61.57;99382.08;117353;1185;23550;-70
2022/09/27 03:52:43;;;;;;;176.30;166.80;;;;;;;20.13;61.59;99380.94;117327;1185;21917;-70
2022/09/27 03:55:11;;;;;;;165.50;156.60;;;;;;;20.15;61.70;99378.52;117368;1185;23551;-70
2022/09/27 03:57:39;;;;;;;171.20;161.70;;;;;;;20.15;62.29;99380.41;117319;1185;23550;-62
2022/09/27 04:00:07;;;;;;;175.60;165.90;;;;;;;20.14;61.88;99387.77;117324;1184;23595;-70
2022/09/27 04:02:33;;;;;;;175.30;165.90;;;;;;;20.14;61.69;99393.14;117340;1185;21971;-70
2022/09/27 04:05:00;;;;;;;170.80;161.60;;;;;;;20.15;61.58;99397.91;117355;1185;21908;-70
2022/09/27 04:07:29;;;;;;;188.80;179.00;;;;;;;20.16;61.54;99403.35;117359;1185;21856;-70
2022/09/27 04:09:58;;;;;;;166.50;157.50;;;;;;;20.20;61.84;99398.11;117349;1185;23647;-61
2022/09/27 04:12:25;;;;;;;180.80;171.30;;;;;;;20.18;61.71;99391.98;117325;1185;23595;-70
2022/09/27 04:14:54;;;;;;;167.40;158.70;;;;;;;20.18;61.54;99386.98;116966;1186;23717;-69
2022/09/27 04:17:21;;;;;;;173.90;164.60;;;;;;;20.18;61.64;99376.48;117076;1187;23558;-69
2022/09/27 04:19:49;;;;;;;183.80;174.00;;;;;;;20.18;61.69;99370.58;117090;1188;22805;-61
2022/09/27 04:22:16;;;;;;;174.30;164.80;;;;;;;20.18;61.81;99366.30;117235;1187;24192;-62
2022/09/27 04:24:43;;;;;;;185.00;175.10;;;;;;;20.17;61.55;99363.00;117136;1186;23684;-71
2022/09/27 04:27:10;;;;;;;193.30;183.10;;;;;;;20.17;61.58;99350.55;117067;1187;24182;-62
2022/09/27 04:29:41;;;;;;;172.70;163.00;;;;;;;20.16;61.56;99341.89;117055;1187;21876;-61
2022/09/27 04:32:08;;;;;;;177.70;168.00;;;;;;;20.15;61.36;99333.90;117140;1186;23558;-63
2022/09/27 04:37:21;;;;;;;180.40;170.20;;;;;;;20.16;61.16;99324.27;117170;1186;23593;-71
2022/09/27 04:39:48;;;;;;;178.50;169.20;;;;;;;20.17;61.12;99328.27;117174;1186;22062;-71
2022/09/27 04:42:16;;;;;;;176.60;166.40;;;;;;;20.20;61.21;99331.30;117266;1186;23556;-70
2022/09/27 04:44:43;;;;;;;178.50;168.40;;;;;;;20.23;61.37;99324.30;117097;1186;21866;-71
2022/09/27 04:47:10;;;;;;;190.30;179.90;;;;;;;20.29;61.37;99317.31;117229;1185;23566;-63
2022/09/27 04:49:38;;;;;;;180.60;171.10;;;;;;;20.33;61.11;99316.80;117156;1186;21872;-63
2022/09/27 04:52:05;;;;;;;172.10;162.90;;;;;;;20.38;60.86;99318.48;117143;1186;22030;-63
2022/09/27 04:54:33;;;;;;;169.70;160.50;;;;;;;20.39;60.68;99312.68;117086;1189;22638;-63
2022/09/27 04:57:00;;;;;;;172.90;163.70;;;;;;;20.41;60.58;99306.20;117196;1186;23624;-63
2022/09/27 04:59:27;;;;;;;174.00;164.40;;;;;;;20.42;60.65;99304.84;117113;1186;23560;-71
2022/09/27 05:01:54;;;;;;;181.90;172.30;;;;;;;20.44;60.59;99300.40;117107;1186;22625;-71
2022/09/27 05:04:21;;;;;;;171.70;162.50;;;;;;;20.45;60.75;99300.86;117145;1186;23559;-71
2022/09/27 05:06:50;;;;;;;178.90;169.50;;;;;;;20.48;61.06;99304.75;117082;1186;23653;-64
2022/09/27 05:09:23;;;;;;;165.20;156.40;;;;;;;20.49;60.94;99305.92;117105;1187;23557;-71
2022/09/27 05:11:50;;;;;;;176.40;167.20;;;;;;;20.51;61.16;99295.85;117032;1187;23559;-64
2022/09/27 05:14:17;;;;;;;189.50;179.80;;;;;;;20.52;61.05;99285.43;117109;1186;22918;-63
2022/09/27 05:16:44;;;;;;;184.60;174.70;;;;;;;20.53;61.06;99278.10;117146;1186;23637;-63
2022/09/27 05:19:12;;;;;;;181.40;171.80;;;;;;;20.56;61.21;99277.84;117147;1186;23624;-63
2022/09/27 05:21:39;;;;;;;182.10;172.50;;;;;;;20.59;61.18;99273.88;117049;1187;23634;-63
2022/09/27 05:24:06;;;;;;;185.50;175.90;;;;;;;20.61;60.89;99271.92;117095;1189;23602;-63
2022/09/27 05:26:33;;;;;;;179.80;170.30;;;;;;;20.65;61.01;99277.56;117063;1186;23565;-63
2022/09/27 05:29:00;;;;;;;182.10;172.60;;;;;;;20.69;61.17;99275.85;117120;1186;23507;-71
2022/09/27 05:31:28;;;;;;;177.10;167.50;;;;;;;20.73;61.16;99275.90;117168;1185;22648;-71
2022/09/27 05:33:55;;;;;;;189.10;178.40;;;;;;;20.77;61.10;99275.08;117099;1187;22929;-71
2022/09/27 05:36:22;;;;;;;184.40;174.00;;;;;;;20.81;61.12;99266.80;117072;1186;22818;-71
2022/09/27 05:38:49;;;;;;;189.60;179.30;;;;;;;20.85;61.08;99266.35;117199;1186;23611;-71
2022/09/27 05:41:17;;;;;;;189.40;179.70;;;;;;;20.88;60.97;99267.23;116964;1188;22903;-71
2022/09/27 05:43:45;;;;;;;180.40;170.80;;;;;;;20.90;60.91;99265.68;117049;1187;23563;-72
2022/09/27 05:46:12;;;;;;;189.00;179.20;;;;;;;20.92;61.00;99270.64;117125;1186;23656;-71
2022/09/27 05:48:41;;;;;;;190.40;180.10;;;;;;;20.92;61.04;99273.33;116982;1188;23337;-63
2022/09/27 05:51:13;;;;;;;189.40;179.20;;;;;;;20.93;61.05;99275.56;116792;1186;21944;-71
2022/09/27 05:53:40;;;;;;;179.00;169.60;;;;;;;20.94;61.02;99272.77;118737;1187;23583;-71
2022/09/27 05:56:07;;;;;;;178.80;169.40;;;;;;;20.97;61.01;99272.08;119378;1185;22150;-69
2022/09/27 05:58:34;;;;;;;183.50;174.00;;;;;;;20.99;61.12;99271.78;119218;1186;22096;-69
2022/09/27 06:01:08;;;;;;;187.90;177.50;;;;;;;21.02;61.06;99269.03;119191;1186;22253;-70
2022/09/27 06:03:39;;;;;;;177.20;167.50;;;;;;;21.07;60.96;99260.69;117164;1186;21957;-70
2022/09/27 06:06:07;;;;;;;;;;;;;;;21.10;61.01;99258.84;117107;1181;23569;-69
2022/09/27 06:08:34;;;;;;;153.60;145.60;;;;;;;21.13;61.05;99258.95;117197;1186;23556;-62
2022/09/27 06:11:07;;;;;;;168.80;160.00;;;;;;;21.16;61.18;99262.67;117261;1186;22635;-70
2022/09/27 06:13:44;;;;;;;171.70;162.70;;;;;;;21.17;61.03;99264.17;117140;1185;23599;-62
2022/09/27 06:16:11;;;;;;;181.90;171.90;;;;;;;21.17;61.05;99261.35;117620;1186;22924;-70
2022/09/27 06:18:38;;;;;;;187.90;177.80;;;;;;;21.19;61.53;99267.27;117121;1187;23558;-70
2022/09/27 06:21:06;;;;;;;177.20;167.30;;;;;;;21.20;61.47;99277.20;117037;1187;24271;-62
2022/09/27 06:23:36;;;;;;;183.40;173.30;;;;;;;21.19;61.34;99283.49;116858;1189;23870;-70
2022/09/27 06:26:04;;;;;;;188.50;178.20;;;;;;;21.19;61.15;99281.34;117092;1187;22705;-71
2022/09/27 06:28:34;;;;;;;202.50;191.70;;;;;;;21.20;61.46;99281.30;117157;1185;23555;-70
2022/09/27 06:31:01;;;;;;;205.80;194.80;;;;;;;21.20;61.53;99283.59;117081;1187;23763;-63
2022/09/27 06:33:28;;;;;;;194.20;183.60;;;;;;;21.23;61.72;99286.62;117058;1187;23627;-63
2022/09/27 06:35:55;;;;;;;220.90;209.30;;;;;;;21.24;61.58;99286.51;117044;1187;23583;-71
2022/09/27 06:38:23;;;;;;;210.60;198.90;;;;;;;21.28;61.72;99285.13;117231;1187;22651;-71
2022/09/27 06:40:51;;;;;;;201.10;189.80;;;;;;;21.32;61.81;99278.63;117111;1186;23515;-63
2022/09/27 06:43:19;;;;;;;214.90;202.90;;;;;;;21.36;61.80;99280.27;117043;1186;23585;-62
2022/09/27 06:45:46;;;;;;;214.50;202.80;;;;;;;21.41;62.00;99278.14;117451;1186;23575;-64
2022/09/27 06:48:16;;;;;;;220.40;208.40;;;;;;;21.44;62.04;99274.48;116911;1187;22648;-63
2022/09/27 06:50:44;;;;;;;220.40;208.10;;;;;;;21.50;62.06;99269.75;117105;1186;21913;-63
2022/09/27 06:53:13;;;;;;;216.20;204.60;;;;;;;21.55;61.85;99266.73;116998;1184;23651;-71
2022/09/27 06:55:40;;;;;;;192.60;181.90;;;;;;;21.60;61.84;99257.61;117171;1188;22825;-63
2022/09/27 07:00:54;;;;;;;180.10;169.90;;;;;;;21.72;61.88;99250.84;117059;1186;23554;-72
2022/09/27 07:03:25;;;;;;;185.60;175.00;;;;;;;21.76;61.89;99249.30;117118;1188;23557;-71
2022/09/27 07:06:01;;;;;;;191.90;180.80;;;;;;;21.80;61.90;99250.95;117317;1186;23584;-63
2022/09/27 07:08:28;;;;;;;189.00;177.50;;;;;;;21.81;61.87;99250.67;117287;1182;23653;-63
2022/09/27 07:10:55;;;;;;;195.80;184.00;;;;;;;21.84;61.77;99247.27;117079;1186;23569;-71
2022/09/27 07:13:22;;;;;;;192.80;181.70;;;;;;;21.88;61.75;99246.24;117160;1186;23558;-71
2022/09/27 07:15:50;;;;;;;194.70;182.90;;;;;;;21.91;61.84;99243.34;117175;1185;23660;-63
2022/09/27 07:18:18;;;;;;;207.00;194.40;;;;;;;21.94;61.98;99245.59;117317;1186;23485;-63
2022/09/27 07:20:44;;;;;;;196.20;184.10;;;;;;;21.96;62.05;99248.66;117274;1186;24218;-63
2022/09/27 07:23:12;;;;;;;189.90;177.70;;;;;;;21.98;62.20;99254.02;117067;1187;23558;-70
2022/09/27 07:25:38;;;;;;;202.70;190.30;;;;;;;22.00;62.43;99255.64;117046;1186;24168;-62
2022/09/27 07:28:07;;;;;;;205.20;192.60;;;;;;;22.02;62.33;99253.73;117286;1186;22439;-62
2022/09/27 07:30:35;;;;;;;214.70;202.10;;;;;;;22.05;62.44;99245.62;117272;1185;22676;-62
2022/09/27 07:33:05;;;;;;;203.40;191.10;;;;;;;22.06;62.63;99240.05;116997;1188;22743;-62
2022/09/27 07:35:32;;;;;;;205.10;192.90;;;;;;;22.09;62.82;99233.48;117335;1187;22352;-68
2022/09/27 07:37:59;;;;;;;198.70;186.60;;;;;;;22.13;62.99;99231.05;117229;1186;23573;-71
2022/09/27 07:40:26;;;;;;;210.90;197.30;;;;;;;22.18;62.93;99229.46;117173;1186;23560;-71
2022/09/27 07:42:54;;;;;;;199.50;187.70;;;;;;;22.19;62.88;99224.70;117207;1186;23650;-61
2022/09/27 07:45:23;;;;;;;213.70;201.40;;;;;;;22.22;62.78;99223.91;117017;1186;22800;-61
2022/09/27 07:47:52;;;;;;;213.90;201.60;;;;;;;22.26;62.74;99223.95;117146;1185;22325;-62
2022/09/27 07:50:19;;;;;;;207.50;195.70;;;;;;;22.30;62.67;99223.10;117077;1187;23599;-70
2022/09/27 07:52:49;;;;;;;205.50;193.40;;;;;;;22.34;62.63;99222.08;117184;1186;24175;-71
2022/09/27 07:55:16;;;;;;;210.40;198.40;;;;;;;22.37;62.48;99225.77;117197;1186;21857;-71
2022/09/27 07:57:46;;;;;;;212.60;200.40;;;;;;;22.40;62.66;99224.50;117126;1186;23792;-61
2022/09/27 08:00:16;;;;;;;226.20;213.40;;;;;;;22.40;62.53;99226.80;116957;1186;24169;-71
2022/09/27 08:02:43;;;;;;;214.40;201.80;;;;;;;22.41;62.55;99229.55;119229;1186;22096;-68
2022/09/27 08:05:11;;;;;;;213.00;201.00;;;;;;;22.44;62.73;99230.45;117480;1186;23578;-70
2022/09/27 08:07:38;;;;;;;211.70;199.80;;;;;;;22.46;62.56;99236.22;117281;1186;23557;-61
2022/09/27 08:10:06;;;;;;;209.70;198.20;;;;;;;22.48;62.24;99234.13;117124;1185;23635;-62
2022/09/27 08:12:33;;;;;;;198.70;188.10;;;;;;;22.49;62.30;99231.85;117137;1186;24301;-63
2022/09/27 08:15:02;;;;;;;192.10;181.00;;;;;;;22.52;62.36;99228.06;117254;1186;23548;-69
2022/09/27 08:17:31;;;;;;;198.00;187.40;;;;;;;22.53;62.38;99222.23;117485;1185;22638;-63
2022/09/27 08:19:58;;;;;;;199.00;187.90;;;;;;;22.55;62.37;99212.21;117087;1186;22933;-63
2022/09/27 08:22:26;;;;;;;211.20;199.10;;;;;;;22.58;62.23;99208.38;117061;1186;22033;-72
2022/09/27 08:24:55;;;;;;;213.00;201.30;;;;;;;22.60;62.55;99210.80;117232;1186;22079;-70
2022/09/27 08:27:22;;;;;;;201.70;190.50;;;;;;;22.60;62.65;99212.21;117188;1186;23547;-63
2022/09/27 08:29:50;;;;;;;211.90;200.60;;;;;;;22.60;62.66;99215.20;117103;1186;23593;-70
2022/09/27 08:32:18;;;;;;;210.90;199.80;;;;;;;22.62;62.39;99214.73;117311;1184;23621;-70
2022/09/27 08:34:50;;;;;;;212.20;200.60;;;;;;;22.63;62.49;99216.02;117319;1186;24059;-63
2022/09/27 08:37:17;;;;;;;193.00;182.60;;;;;;;22.64;62.55;99214.88;117268;1181;22948;-70
2022/09/27 08:39:44;;;;;;;201.10;190.00;;;;;;;22.64;62.29;99213.67;117283;1186;23649;-62
2022/09/27 08:42:24;;;;;;;199.40;188.50;;;;;;;22.63;62.23;99211.27;117173;1186;24214;-63
2022/09/27 08:45:15;;;;;;;196.40;185.80;;;;;;;22.61;62.36;99205.67;117347;1186;24230;-62
2022/09/27 08:47:59;;;;;;;195.30;184.70;;;;;;;22.57;62.28;99203.29;117355;1186;24313;-62
2022/09/27 08:50:34;;;;;;;198.80;188.00;;;;;;;22.54;62.32;99202.45;117194;1185;22929;-62
2022/09/27 08:53:17;;;;;;;199.20;188.90;;;;;;;22.54;62.20;99197.80;117107;1186;23646;-62
2022/09/27 08:55:48;;;;;;;202.70;191.70;;;;;;;22.54;62.32;99192.98;117092;1186;22797;-64
2022/09/27 08:58:27;;;;;;;196.00;185.50;;;;;;;22.54;62.32;99192.61;117025;1188;21889;-71
2022/09/27 09:00:56;;;;;;;198.30;187.30;;;;;;;22.54;62.17;99197.07;117083;1186;21854;-68
2022/09/27 09:03:25;;;;;;;201.20;190.40;;;;;;;22.53;62.35;99191.46;117110;1189;23584;-64
2022/09/27 09:06:10;;;;;;;200.80;189.70;;;;;;;22.53;62.43;99185.55;117151;1188;21900;-70
2022/09/27 09:08:56;;;;;;;198.20;187.40;;;;;;;22.52;62.44;99176.88;117049;1183;23638;-71
2022/09/27 09:15:16;;;;;;;192.80;182.10;;;;;;;22.57;62.94;99176.61;117136;1186;23498;-71
2022/09/27 09:17:44;;;;;;;196.00;185.30;;;;;;;22.59;62.74;99179.04;116844;1189;23546;-64
2022/09/27 09:20:11;;;;;;;199.30;188.20;;;;;;;22.59;62.74;99174.34;116787;1189;23582;-64
2022/09/27 09:23:17;;;;;;;192.50;182.40;;;;;;;22.61;62.76;99175.27;117025;1188;23034;-68
2022/09/27 09:26:03;;;;;;;;;;;;;;;22.66;62.78;99172.41;117968;1186;22151;-68
2022/09/27 09:28:53;;;;;;;179.30;169.30;;;;;;;22.70;62.71;99171.52;117127;1186;24307;-67
2022/09/27 09:31:24;;;;;;;198.20;187.40;;;;;;;22.74;62.67;99163.31;117132;1186;24247;-61
2022/09/27 09:34:14;;;;;;;204.70;193.40;;;;;;;22.77;62.55;99158.73;117131;1186;23579;-71
2022/09/27 09:36:47;;;;;;;195.60;184.90;;;;;;;22.82;62.69;99157.09;117252;1186;23571;-68
2022/09/27 09:39:38;;;;;;;202.50;191.90;;;;;;;22.87;62.86;99156.50;117233;1186;21862;-69
2022/09/27 09:42:13;;;;;;;208.50;197.60;;;;;;;22.92;62.60;99157.36;116907;1188;23601;-62
2022/09/27 09:45:06;;;;;;;210.00;198.60;;;;;;;22.95;62.73;99152.80;117153;1182;22813;-62
2022/09/27 09:47:38;;;;;;;197.20;186.80;;;;;;;22.99;62.71;99148.16;117057;1186;22917;-62
2022/09/27 09:50:18;;;;;;;203.30;192.60;;;;;;;23.03;62.61;99143.55;117160;1186;23544;-62
2022/09/27 09:52:58;;;;;;;189.30;179.40;;;;;;;23.06;62.52;99138.16;117068;1187;23726;-62
2022/09/27 09:55:27;;;;;;;196.20;185.70;;;;;;;23.09;62.54;99127.88;117237;1186;22932;-62
2022/09/27 09:58:01;;;;;;;200.90;190.00;;;;;;;23.12;62.63;99119.71;117255;1186;23454;-63
2022/09/27 10:00:28;;;;;;;215.00;203.40;;;;;;;23.16;62.69;99115.98;117190;1186;23558;-61
2022/09/27 10:02:57;;;;;;;213.00;201.80;;;;;;;23.20;62.63;99114.61;117030;1186;23570;-62
2022/09/27 10:05:25;;;;;;;199.80;188.90;;;;;;;23.26;62.71;99116.81;117021;1187;22183;-68
2022/09/27 10:07:55;;;;;;;216.30;204.60;;;;;;;23.32;62.62;99109.84;117069;1186;23606;-69
2022/09/27 10:10:22;;;;;;;200.90;190.70;;;;;;;23.40;62.49;99111.52;117200;1186;21871;-61
2022/09/27 10:12:51;;;;;;;212.20;200.90;;;;;;;23.44;62.75;99109.73;117100;1186;23572;-61
2022/09/27 10:15:19;;;;;;;199.00;188.50;;;;;;;23.46;62.31;99105.45;117040;1187;23635;-61
2022/09/27 10:17:51;;;;;;;202.50;191.50;;;;;;;23.49;62.41;99104.71;116991;1190;22917;-67
2022/09/27 10:20:32;;;;;;;189.90;180.20;;;;;;;23.51;62.09;99101.09;117117;1187;23553;-61
2022/09/27 10:23:20;;;;;;;184.10;174.40;;;;;;;23.53;62.20;99087.89;118073;1186;22932;-67
2022/09/27 10:25:57;;;;;;;187.10;177.00;;;;;;;23.57;62.35;99079.63;116916;1189;24270;-60
2022/09/27 10:28:33;;;;;;;201.10;190.70;;;;;;;23.64;62.40;99081.02;117590;1187;23572;-67
2022/09/27 10:31:06;;;;;;;203.10;192.70;;;;;;;23.76;62.22;99083.69;117093;1187;23613;-59
2022/09/27 10:33:36;;;;;;;187.90;178.10;;;;;;;23.88;62.12;99085.11;116939;1187;21931;-59
2022/09/27 10:36:02;;;;;;;186.70;177.00;;;;;;;23.96;61.97;99089.66;117080;1184;21859;-67
2022/09/27 10:38:32;;;;;;;189.30;179.60;;;;;;;24.00;61.69;99091.30;117161;1182;22313;-66
2022/09/27 10:41:23;;;;;;;185.80;176.30;;;;;;;24.01;61.74;99087.27;116973;1187;23563;-67
2022/09/27 10:43:51;;;;;;;173.70;164.70;;;;;;;23.99;61.47;99086.02;116982;1189;23627;-67
2022/09/27 10:46:25;;;;;;;172.90;163.60;;;;;;;23.97;61.41;99086.55;117169;1186;23584;-60
2022/09/27 10:49:28;;;;;;;178.70;169.20;;;;;;;23.96;61.34;99083.52;117042;1188;24720;-59
2022/09/27 10:52:17;;;;;;;154.90;146.90;;;;;;;23.97;61.36;99080.59;117077;1186;24201;-67
2022/09/27 10:55:04;;;;;;;165.60;157.00;;;;;;;23.97;61.30;99076.83;117295;1186;21854;-59
2022/09/27 10:57:31;;;;;;;165.70;156.90;;;;;;;24.00;61.21;99085.23;117092;1186;21876;-67
2022/09/27 11:00:00;;;;;;;156.00;147.80;;;;;;;24.01;61.09;99091.52;117082;1186;21878;-68
2022/09/27 11:02:33;;;;;;;183.20;173.70;;;;;;;24.01;61.01;99091.36;117120;1189;24190;-59
2022/09/27 11:05:13;;;;;;;165.10;156.50;;;;;;;24.02;60.95;99089.86;117047;1186;23560;-68
2022/09/27 11:07:53;;;;;;;150.60;142.80;;;;;;;24.05;60.75;99092.83;118005;1187;23548;-69
2022/09/27 11:10:27;;;;;;;157.10;149.20;;;;;;;24.07;60.71;99094.79;117005;1188;22648;-68
2022/09/27 11:13:11;;;;;;;177.20;168.20;;;;;;;24.07;60.67;99104.63;116832;1189;23505;-60
2022/09/27 11:15:52;;;;;;;160.60;152.20;;;;;;;24.06;60.47;99102.92;117061;1188;21864;-60
2022/09/27 11:18:41;;;;;;;146.40;139.00;;;;;;;24.05;60.30;99100.64;117107;1186;22652;-60
2022/09/27 11:21:28;;;;;;;146.00;138.80;;;;;;;24.04;60.26;99093.40;117096;1187;23600;-70
2022/09/27 11:24:02;;;;;;;150.20;142.60;;;;;;;24.05;59.96;99089.78;117202;1186;23591;-69
2022/09/27 11:26:50;;;;;;;151.00;143.30;;;;;;;24.07;60.03;99089.38;117093;1188;22913;-61